createdAt,value
2019-03-31T00:02:40.666Z,46.48
2019-03-31T00:07:47.496Z,45.13
2019-03-31T00:12:54.499Z,43.60
2019-03-31T00:18:01.276Z,48.73
2019-03-31T00:23:08.043Z,48.00
2019-03-31T00:28:15.382Z,48.50
2019-03-31T00:33:24.353Z,53.47
2019-03-31T00:38:31.206Z,53.50
2019-03-31T00:43:39.231Z,59.23
2019-03-31T00:48:46.135Z,63.13
2019-03-31T00:53:52.982Z,65.60
2019-03-31T00:58:59.972Z,61.15
2019-03-31T01:04:08.594Z,61.13
2019-03-31T01:09:24.249Z,66.20
2019-03-31T01:14:31.685Z,63.57
2019-03-31T01:19:38.995Z,66.60
2019-03-31T01:24:46.014Z,70.17
2019-03-31T01:29:53.069Z,71.40
2019-03-31T01:35:00.371Z,79.53
2019-03-31T01:40:07.709Z,77.23
2019-03-31T01:45:14.932Z,75.27
2019-03-31T01:50:22.347Z,76.20
2019-03-31T01:55:29.191Z,79.80
2019-03-31T02:00:42.503Z,74.90
2019-03-31T02:05:49.408Z,78.40
2019-03-31T02:10:56.255Z,81.22
2019-03-31T02:16:03.641Z,77.63
2019-03-31T02:21:10.589Z,74.62
2019-03-31T02:26:17.432Z,70.60
2019-03-31T02:31:24.285Z,75.37
2019-03-31T02:36:31.324Z,80.60
2019-03-31T02:41:38.114Z,77.30
2019-03-31T02:46:45.073Z,76.33
2019-03-31T02:51:52.105Z,83.00
2019-03-31T02:57:00.262Z,79.33
2019-03-31T03:02:07.490Z,82.13
2019-03-31T03:07:15.371Z,78.00
2019-03-31T03:12:25.717Z,75.53
2019-03-31T03:17:32.474Z,80.87
2019-03-31T03:22:39.281Z,80.37
2019-03-31T03:27:46.240Z,80.95
2019-03-31T03:33:13.859Z,80.55
2019-03-31T03:38:01.970Z,84.73
2019-03-31T03:43:09.022Z,81.73
2019-03-31T03:48:16.074Z,79.22
2019-03-31T03:53:23.657Z,78.00
2019-03-31T03:58:30.561Z,86.17
2019-03-31T04:03:37.372Z,77.93
2019-03-31T04:08:44.165Z,88.00
2019-03-31T04:13:51.361Z,89.60
2019-03-31T04:18:58.597Z,89.25
2019-03-31T04:24:06.077Z,88.60
2019-03-31T04:29:13.436Z,81.92
2019-03-31T04:34:20.745Z,86.97
2019-03-31T04:39:27.697Z,85.57
2019-03-31T04:44:34.740Z,92.20
2019-03-31T04:49:41.561Z,90.90
2019-03-31T04:54:48.444Z,90.53
2019-03-31T04:59:55.546Z,97.77
2019-03-31T05:05:02.614Z,89.23
2019-03-31T05:10:10.044Z,92.43
2019-03-31T05:15:17.252Z,89.53
2019-03-31T05:20:24.976Z,87.12
2019-03-31T05:25:31.843Z,89.27
2019-03-31T05:30:39.113Z,92.50
2019-03-31T05:35:47.964Z,88.37
2019-03-31T05:40:55.046Z,80.60
2019-03-31T05:46:02.191Z,84.23
2019-03-31T05:51:09.004Z,78.03
2019-03-31T05:56:15.801Z,67.53
2019-03-31T06:01:23.121Z,66.13
2019-03-31T06:06:30.017Z,63.20
2019-03-31T06:11:36.814Z,64.93
2019-03-31T06:16:44.839Z,67.17
2019-03-31T06:21:53.274Z,63.23
2019-03-31T06:27:00.216Z,65.07
2019-03-31T06:32:07.591Z,62.90
2019-03-31T06:37:14.458Z,60.47
2019-03-31T06:42:21.311Z,66.80
2019-03-31T06:47:28.086Z,60.17
2019-03-31T06:52:34.942Z,69.27
2019-03-31T06:57:41.852Z,61.03
2019-03-31T07:02:48.827Z,64.67
2019-03-31T07:07:56.087Z,64.33
2019-03-31T07:13:03.123Z,64.27
2019-03-31T07:18:10.251Z,66.35
2019-03-31T07:23:18.585Z,66.12
2019-03-31T07:28:25.430Z,69.60
2019-03-31T07:33:32.251Z,65.32
2019-03-31T07:38:39.845Z,65.37
2019-03-31T07:43:46.884Z,66.00
2019-03-31T07:48:53.822Z,59.33
2019-03-31T07:54:00.848Z,60.92
2019-03-31T07:59:07.607Z,57.47
2019-03-31T08:04:15.495Z,61.20
2019-03-31T08:09:22.411Z,60.70
2019-03-31T08:14:29.195Z,56.50
2019-03-31T08:19:36.119Z,57.10
2019-03-31T08:24:45.774Z,54.67
2019-03-31T08:30:00.454Z,58.37
2019-03-31T08:35:01.637Z,61.73
2019-03-31T08:40:10.630Z,58.93
2019-03-31T08:45:17.556Z,55.77
2019-03-31T08:50:24.976Z,54.83
2019-03-31T08:55:34.856Z,52.30
2019-03-31T09:00:51.874Z,43.90
2019-03-31T09:06:02.156Z,44.07
2019-03-31T09:11:07.408Z,44.63
2019-03-31T09:16:14.526Z,36.58
2019-03-31T09:21:21.460Z,42.40
2019-03-31T09:26:28.434Z,37.97
2019-03-31T09:31:35.383Z,31.30
2019-03-31T09:36:42.189Z,31.57
2019-03-31T09:41:49.170Z,30.63
2019-03-31T09:46:56.202Z,24.57
2019-03-31T09:52:03.133Z,24.93
2019-03-31T09:57:10.661Z,23.67
2019-03-31T10:02:17.563Z,23.90
2019-03-31T10:07:25.418Z,22.00
2019-03-31T10:12:32.332Z,20.07
2019-03-31T10:17:39.292Z,18.67
2019-03-31T10:22:46.306Z,15.57
2019-03-31T10:27:53.144Z,18.42
2019-03-31T10:33:00.046Z,14.13
2019-03-31T10:38:07.676Z,13.97
2019-03-31T10:43:14.526Z,15.60
2019-03-31T10:48:21.520Z,16.30
2019-03-31T10:53:28.751Z,12.93
2019-03-31T10:58:36.476Z,13.80
2019-03-31T11:03:44.547Z,13.73
2019-03-31T11:08:51.445Z,14.70
2019-03-31T11:13:58.288Z,15.05
2019-03-31T11:19:06.019Z,13.57
2019-03-31T11:24:12.937Z,16.17
2019-03-31T11:29:19.813Z,14.13
2019-03-31T11:34:26.861Z,15.23
2019-03-31T11:39:33.754Z,17.23
2019-03-31T11:44:40.682Z,13.77
2019-03-31T11:50:02.258Z,13.97
2019-03-31T11:55:09.721Z,14.27
2019-03-31T12:00:18.096Z,13.37
2019-03-31T12:05:36.539Z,14.63
2019-03-31T12:10:43.446Z,14.37
2019-03-31T12:15:51.484Z,13.10
2019-03-31T12:20:58.387Z,13.10
2019-03-31T12:26:06.269Z,11.33
2019-03-31T12:31:13.073Z,13.28
2019-03-31T12:36:20.224Z,13.63
2019-03-31T12:41:27.244Z,14.47
2019-03-31T12:46:34.180Z,12.07
2019-03-31T12:51:41.157Z,13.20
2019-03-31T12:56:48.120Z,13.87
2019-03-31T13:01:55.059Z,10.63
2019-03-31T13:07:02.021Z,10.53
2019-03-31T13:12:09.151Z,11.73
2019-03-31T13:17:17.803Z,9.85
2019-03-31T13:22:25.842Z,8.70
2019-03-31T13:27:32.792Z,11.07
2019-03-31T13:32:39.636Z,10.10
2019-03-31T13:37:46.561Z,8.10
2019-03-31T13:42:53.438Z,9.03
2019-03-31T13:48:00.321Z,7.67
2019-03-31T13:53:08.178Z,9.00
2019-03-31T13:58:15.651Z,7.80
2019-03-31T14:03:23.881Z,7.93
2019-03-31T14:08:30.844Z,8.93
2019-03-31T14:13:37.730Z,9.33
2019-03-31T14:18:45.041Z,7.70
2019-03-31T14:23:51.984Z,7.10
2019-03-31T14:28:58.819Z,6.83
2019-03-31T14:34:06.376Z,9.23
2019-03-31T14:39:13.178Z,9.40
2019-03-31T14:44:20.348Z,6.72
2019-03-31T14:49:28.345Z,7.95
2019-03-31T14:54:35.238Z,9.60
2019-03-31T14:59:42.252Z,8.65
2019-03-31T15:04:49.270Z,7.50
2019-03-31T15:09:56.565Z,8.78
2019-03-31T15:15:03.440Z,7.03
2019-03-31T15:20:12.092Z,6.50
2019-03-31T15:25:19.231Z,6.28
2019-03-31T15:30:26.190Z,5.60
2019-03-31T15:35:33.301Z,6.80
2019-03-31T15:40:40.867Z,5.93
2019-03-31T15:45:48.326Z,6.90
2019-03-31T15:50:55.219Z,5.50
2019-03-31T15:56:02.371Z,5.03
2019-03-31T16:01:09.225Z,6.97
2019-03-31T16:06:16.343Z,5.87
2019-03-31T16:11:22.718Z,7.03
2019-03-31T16:16:30.672Z,9.03
2019-03-31T16:21:37.078Z,7.87
2019-03-31T16:26:43.420Z,6.08
2019-03-31T16:31:51.156Z,10.03
2019-03-31T16:36:57.626Z,8.27
2019-03-31T16:42:04.104Z,8.83
2019-03-31T16:47:10.770Z,8.13
2019-03-31T16:52:18.457Z,9.77
2019-03-31T16:57:25.903Z,8.63
2019-03-31T17:02:33.486Z,6.93
2019-03-31T17:07:39.815Z,6.80
2019-03-31T17:12:46.358Z,8.73
2019-03-31T17:17:52.635Z,8.35
2019-03-31T17:22:59.225Z,6.27
2019-03-31T17:28:05.764Z,8.33
2019-03-31T17:33:13.146Z,8.53
2019-03-31T17:38:19.685Z,9.80
2019-03-31T17:43:26.304Z,10.57
2019-03-31T17:48:32.838Z,9.87
2019-03-31T17:53:39.360Z,9.07
2019-03-31T17:58:47.015Z,8.18
2019-03-31T18:03:53.370Z,13.07
2019-03-31T18:09:01.596Z,9.87
2019-03-31T18:14:10.763Z,5.87
2019-03-31T18:19:17.241Z,9.30
2019-03-31T18:24:25.165Z,10.87
2019-03-31T18:29:31.600Z,7.37
2019-03-31T18:34:40.530Z,8.37
2019-03-31T18:39:47.226Z,7.73
2019-03-31T18:44:53.590Z,9.40
2019-03-31T18:50:02.264Z,8.63
2019-03-31T18:55:30.921Z,8.13
2019-03-31T19:01:05.007Z,7.47
2019-03-31T19:06:22.072Z,7.23
2019-03-31T19:11:50.610Z,8.90
2019-03-31T19:17:16.265Z,7.00
2019-03-31T19:22:41.593Z,9.83
2019-03-31T19:28:15.930Z,7.67
2019-03-31T19:33:36.416Z,8.30
2019-03-31T19:39:11.183Z,6.20
2019-03-31T19:44:39.866Z,8.08
2019-03-31T19:49:57.145Z,7.50
2019-03-31T19:55:15.011Z,8.78
2019-03-31T20:00:39.694Z,9.63
2019-03-31T20:06:03.536Z,9.43
2019-03-31T20:11:29.366Z,9.63
2019-03-31T20:16:55.865Z,12.20
2019-03-31T20:22:07.842Z,8.20
2019-03-31T20:27:36.120Z,6.93
2019-03-31T20:33:07.301Z,10.60
2019-03-31T20:38:21.868Z,10.70
2019-03-31T20:43:53.135Z,5.87
2019-03-31T20:49:00.271Z,11.73
2019-03-31T20:54:06.678Z,6.85
2019-03-31T20:59:13.236Z,11.70
2019-03-31T21:04:20.223Z,10.10
2019-03-31T21:09:26.635Z,5.97
2019-03-31T21:14:32.931Z,8.03
2019-03-31T21:19:39.325Z,6.07
2019-03-31T21:24:45.621Z,7.50
2019-03-31T21:29:51.917Z,8.33
2019-03-31T21:34:58.491Z,8.40
2019-03-31T21:40:05.834Z,6.60
2019-03-31T21:45:13.468Z,7.03
2019-03-31T21:50:19.829Z,5.58
2019-03-31T21:55:26.695Z,9.70
2019-03-31T22:00:52.293Z,11.07
2019-03-31T22:06:00.210Z,8.50
2019-03-31T22:11:06.708Z,7.03
2019-03-31T22:16:13.034Z,7.23
2019-03-31T22:21:19.559Z,12.20
2019-03-31T22:26:26.014Z,12.67
2019-03-31T22:31:32.493Z,6.93
2019-03-31T22:36:39.964Z,5.87
2019-03-31T22:41:46.399Z,8.87
2019-03-31T22:46:54.520Z,8.18
2019-03-31T22:52:00.795Z,5.83
2019-03-31T22:57:06.981Z,12.37
2019-03-31T23:02:13.438Z,9.07
2019-03-31T23:07:19.641Z,9.97
2019-03-31T23:12:25.927Z,9.53
2019-03-31T23:17:34.679Z,9.20
2019-03-31T23:22:42.282Z,9.93
2019-03-31T23:27:48.621Z,10.83
2019-03-31T23:32:54.844Z,8.40
2019-03-31T23:38:02.430Z,8.50
2019-03-31T23:43:08.780Z,10.87
2019-03-31T23:48:15.005Z,12.20
2019-03-31T23:53:21.247Z,7.17
2019-03-31T23:58:27.631Z,9.75
